createdAt,value
2018-10-07T00:01:44.496Z,131.10
2018-10-07T00:04:14.187Z,129.67
2018-10-07T00:06:43.387Z,129.33
2018-10-07T00:09:12.688Z,133.93
2018-10-07T00:11:42.077Z,127.90
2018-10-07T00:14:11.301Z,126.83
2018-10-07T00:16:40.571Z,128.32
2018-10-07T00:19:09.738Z,127.60
2018-10-07T00:21:39.207Z,131.43
2018-10-07T00:24:08.409Z,135.33
2018-10-07T00:26:37.670Z,131.97
2018-10-07T00:29:06.928Z,132.27
2018-10-07T00:31:40.321Z,139.50
2018-10-07T00:34:09.530Z,128.82
2018-10-07T00:36:38.824Z,124.35
2018-10-07T00:39:09.452Z,117.55
2018-10-07T00:41:38.751Z,108.80
2018-10-07T00:44:08.156Z,117.27
2018-10-07T00:46:37.339Z,111.30
2018-10-07T00:49:06.666Z,109.90
2018-10-07T00:51:35.879Z,109.77
2018-10-07T00:54:05.141Z,93.40
2018-10-07T00:56:35.195Z,99.15
2018-10-07T00:59:04.405Z,88.30
2018-10-07T01:01:33.656Z,85.87
2018-10-07T01:04:03.238Z,72.47
2018-10-07T01:06:32.421Z,95.87
2018-10-07T01:09:01.887Z,80.33
2018-10-07T01:11:31.060Z,82.77
2018-10-07T01:14:00.231Z,81.10
2018-10-07T01:16:29.481Z,64.63
2018-10-07T01:18:58.608Z,49.30
2018-10-07T01:21:27.852Z,43.48
2018-10-07T01:23:57.126Z,49.50
2018-10-07T01:26:26.285Z,47.00
2018-10-07T01:28:55.508Z,50.40
2018-10-07T01:31:24.744Z,53.77
2018-10-07T01:33:53.901Z,50.80
2018-10-07T01:36:24.148Z,38.23
2018-10-07T01:38:53.306Z,44.53
2018-10-07T01:41:22.720Z,38.43
2018-10-07T01:43:51.869Z,33.00
2018-10-07T01:46:21.121Z,33.17
2018-10-07T01:48:50.367Z,32.90
2018-10-07T01:51:19.573Z,25.75
2018-10-07T01:53:49.109Z,29.20
2018-10-07T01:56:18.406Z,29.90
2018-10-07T01:58:47.612Z,26.20
2018-10-07T02:01:16.776Z,26.30
2018-10-07T02:03:46.015Z,20.88
2018-10-07T02:06:15.256Z,15.30
2018-10-07T02:08:44.497Z,16.33
2018-10-07T02:11:14.596Z,11.70
2018-10-07T02:13:43.820Z,12.97
2018-10-07T02:16:12.980Z,11.60
2018-10-07T02:18:42.132Z,11.25
2018-10-07T02:21:11.345Z,14.80
2018-10-07T02:23:40.518Z,12.80
2018-10-07T02:26:10.559Z,12.00
2018-10-07T02:28:39.691Z,14.90
2018-10-07T02:31:08.872Z,16.13
2018-10-07T02:33:38.067Z,12.73
2018-10-07T02:36:07.388Z,8.13
2018-10-07T02:38:36.536Z,12.13
2018-10-07T02:41:05.700Z,11.80
2018-10-07T02:43:34.919Z,11.43
2018-10-07T02:46:04.183Z,9.47
2018-10-07T02:48:33.343Z,9.57
2018-10-07T02:51:02.557Z,11.33
2018-10-07T02:53:31.773Z,6.70
2018-10-07T02:56:05.879Z,7.77
2018-10-07T02:58:35.608Z,7.37
2018-10-07T03:01:04.886Z,7.93
2018-10-07T03:03:34.125Z,6.57
2018-10-07T03:06:03.325Z,7.87
2018-10-07T03:08:32.516Z,6.40
2018-10-07T03:11:01.746Z,4.93
2018-10-07T03:13:30.935Z,6.37
2018-10-07T03:16:00.232Z,5.00
2018-10-07T03:18:29.431Z,7.30
2018-10-07T03:20:58.627Z,6.10
2018-10-07T03:23:27.778Z,5.13
2018-10-07T03:25:56.943Z,7.50
2018-10-07T03:28:26.264Z,4.57
2018-10-07T03:30:55.496Z,5.30
2018-10-07T03:33:24.654Z,5.90
2018-10-07T03:35:53.923Z,5.47
2018-10-07T03:38:23.044Z,4.85
2018-10-07T03:40:52.209Z,4.97
2018-10-07T03:43:21.393Z,6.93
2018-10-07T03:45:50.586Z,4.43
2018-10-07T03:48:19.804Z,3.80
2018-10-07T03:50:49.001Z,4.50
2018-10-07T03:53:18.232Z,4.00
2018-10-07T03:55:47.439Z,5.13
2018-10-07T03:58:16.696Z,7.33
2018-10-07T04:00:45.972Z,4.80
2018-10-07T04:03:15.208Z,5.65
2018-10-07T04:05:44.535Z,4.17
2018-10-07T04:08:13.877Z,4.07
2018-10-07T04:10:43.000Z,3.60
2018-10-07T04:13:12.188Z,3.37
2018-10-07T04:15:41.388Z,4.53
2018-10-07T04:18:10.849Z,4.07
2018-10-07T04:20:40.100Z,3.80
2018-10-07T04:23:09.270Z,4.90
2018-10-07T04:25:38.472Z,4.20
2018-10-07T04:28:07.682Z,4.13
2018-10-07T04:30:36.886Z,7.77
2018-10-07T04:33:06.114Z,4.50
2018-10-07T04:35:35.359Z,4.08
2018-10-07T04:38:04.604Z,4.00
2018-10-07T04:40:33.759Z,4.43
2018-10-07T04:43:02.965Z,4.20
2018-10-07T04:45:32.124Z,4.57
2018-10-07T04:48:01.312Z,4.43
2018-10-07T04:50:30.524Z,4.70
2018-10-07T04:52:59.678Z,5.30
2018-10-07T04:55:28.851Z,5.33
2018-10-07T04:57:57.958Z,4.37
2018-10-07T05:00:27.081Z,4.60
2018-10-07T05:02:56.268Z,4.80
2018-10-07T05:05:25.605Z,5.90
2018-10-07T05:07:54.804Z,5.40
2018-10-07T05:10:47.732Z,4.97
2018-10-07T05:13:20.445Z,4.30
2018-10-07T05:15:51.696Z,4.70
2018-10-07T05:18:20.929Z,4.92
2018-10-07T05:20:50.168Z,7.07
2018-10-07T05:23:19.809Z,5.78
2018-10-07T05:25:48.969Z,4.43
2018-10-07T05:28:18.547Z,3.80
2018-10-07T05:30:47.791Z,4.62
2018-10-07T05:33:16.990Z,3.50
2018-10-07T05:35:46.080Z,3.53
2018-10-07T05:38:15.187Z,3.80
2018-10-07T05:40:44.348Z,3.70
2018-10-07T05:43:13.521Z,5.70
2018-10-07T05:45:42.654Z,2.87
2018-10-07T05:48:11.883Z,2.73
2018-10-07T05:50:41.103Z,4.97
2018-10-07T05:53:10.224Z,3.83
2018-10-07T05:55:39.432Z,2.87
2018-10-07T05:58:08.605Z,3.87
2018-10-07T06:00:38.199Z,2.90
2018-10-07T06:03:13.490Z,2.70
2018-10-07T06:05:42.783Z,3.83
2018-10-07T06:08:13.118Z,2.70
2018-10-07T06:10:42.402Z,3.47
2018-10-07T06:13:11.628Z,3.13
2018-10-07T06:15:42.547Z,2.83
2018-10-07T06:18:11.763Z,3.80
2018-10-07T06:20:41.102Z,2.20
2018-10-07T06:23:10.304Z,2.73
2018-10-07T06:25:39.518Z,2.40
2018-10-07T06:28:08.700Z,4.27
2018-10-07T06:30:37.891Z,2.12
2018-10-07T06:33:07.107Z,2.10
2018-10-07T06:35:36.335Z,2.57
2018-10-07T06:38:05.517Z,4.20
2018-10-07T06:40:34.653Z,2.20
2018-10-07T06:43:03.906Z,2.50
2018-10-07T06:45:33.150Z,5.17
2018-10-07T06:48:02.257Z,5.03
2018-10-07T06:50:31.411Z,3.63
2018-10-07T06:53:00.588Z,4.03
2018-10-07T06:55:29.789Z,4.00
2018-10-07T06:57:58.954Z,4.20
2018-10-07T07:00:28.190Z,2.87
2018-10-07T07:02:57.392Z,2.57
2018-10-07T07:05:26.503Z,2.63
2018-10-07T07:07:55.589Z,2.58
2018-10-07T07:10:24.761Z,4.07
2018-10-07T07:12:53.966Z,4.30
2018-10-07T07:15:23.091Z,5.85
2018-10-07T07:17:52.232Z,3.73
2018-10-07T07:20:21.467Z,2.50
2018-10-07T07:22:50.562Z,2.23
2018-10-07T07:25:19.720Z,2.23
2018-10-07T07:27:48.843Z,4.83
2018-10-07T07:30:17.947Z,2.17
2018-10-07T07:32:47.092Z,5.45
2018-10-07T07:35:16.189Z,3.62
2018-10-07T07:37:45.313Z,2.03
2018-10-07T07:40:14.391Z,3.47
2018-10-07T07:42:43.592Z,4.10
2018-10-07T07:45:12.744Z,1.93
2018-10-07T07:47:41.856Z,2.97
2018-10-07T07:50:11.013Z,2.13
2018-10-07T07:52:40.183Z,3.33
2018-10-07T07:55:09.357Z,5.00
2018-10-07T07:57:38.487Z,1.87
2018-10-07T08:00:07.664Z,2.40
2018-10-07T08:02:36.859Z,1.77
2018-10-07T08:05:06.031Z,3.63
2018-10-07T08:07:35.170Z,4.33
2018-10-07T08:10:04.370Z,4.90
2018-10-07T08:12:33.555Z,3.47
2018-10-07T08:15:02.757Z,3.07
2018-10-07T08:17:32.997Z,1.75
2018-10-07T08:20:02.183Z,1.97
2018-10-07T08:22:31.376Z,2.43
2018-10-07T08:25:00.666Z,2.33
2018-10-07T08:27:29.800Z,2.52
2018-10-07T08:29:59.113Z,3.30
2018-10-07T08:32:28.288Z,2.63
2018-10-07T08:34:57.375Z,3.10
2018-10-07T08:37:26.612Z,1.77
2018-10-07T08:39:55.767Z,3.10
2018-10-07T08:42:24.975Z,1.60
2018-10-07T08:44:54.148Z,3.27
2018-10-07T08:47:23.241Z,2.27
2018-10-07T08:49:52.483Z,2.30
2018-10-07T08:52:21.612Z,2.85
2018-10-07T08:54:50.791Z,4.35
2018-10-07T08:57:19.981Z,2.60
2018-10-07T08:59:49.087Z,4.57
2018-10-07T09:02:18.351Z,3.03
2018-10-07T09:04:47.565Z,5.50
2018-10-07T09:07:16.680Z,5.20
2018-10-07T09:09:45.844Z,3.43
2018-10-07T09:12:15.043Z,5.30
2018-10-07T09:14:44.280Z,8.97
2018-10-07T09:17:13.392Z,3.30
2018-10-07T09:19:42.638Z,4.70
2018-10-07T09:22:11.744Z,4.77
2018-10-07T09:24:40.905Z,3.43
2018-10-07T09:27:10.220Z,5.07
2018-10-07T09:29:39.371Z,6.87
2018-10-07T09:32:08.620Z,5.43
2018-10-07T09:34:37.773Z,5.17
2018-10-07T09:37:07.037Z,12.40
2018-10-07T09:39:36.224Z,8.67
2018-10-07T09:42:05.529Z,2.77
2018-10-07T09:44:34.715Z,5.20
2018-10-07T09:47:03.990Z,6.13
2018-10-07T09:49:33.160Z,5.50
2018-10-07T09:52:02.361Z,11.63
2018-10-07T09:54:31.490Z,4.27
2018-10-07T09:57:00.713Z,5.43
2018-10-07T09:59:29.866Z,11.23
2018-10-07T10:01:59.047Z,5.70
2018-10-07T10:04:28.242Z,9.73
2018-10-07T10:06:57.512Z,8.03
2018-10-07T10:09:26.684Z,4.27
2018-10-07T10:11:55.923Z,3.03
2018-10-07T10:14:25.232Z,4.93
2018-10-07T10:16:58.972Z,12.73
2018-10-07T10:21:45.078Z,4.77
2018-10-07T10:24:26.223Z,4.57
2018-10-07T10:27:02.067Z,5.87
2018-10-07T10:29:34.026Z,6.57
2018-10-07T10:32:07.769Z,7.20
2018-10-07T10:36:45.759Z,8.07
2018-10-07T10:40:24.955Z,3.40
2018-10-07T10:42:57.913Z,8.50
2018-10-07T10:45:33.181Z,5.90
2018-10-07T10:48:37.404Z,7.00
2018-10-07T10:51:46.123Z,9.10
2018-10-07T10:54:28.271Z,5.23
2018-10-07T10:57:19.839Z,7.37
2018-10-07T11:00:00.414Z,6.97
2018-10-07T11:02:40.836Z,5.07
2018-10-07T11:05:24.795Z,4.90
2018-10-07T11:09:06.891Z,5.20
2018-10-07T11:12:07.729Z,5.53
2018-10-07T11:15:44.436Z,5.20
2018-10-07T11:20:26.999Z,8.93
2018-10-07T11:23:09.255Z,9.03
2018-10-07T11:25:45.770Z,4.47
2018-10-07T11:28:24.600Z,6.23
2018-10-07T11:31:06.255Z,6.13
2018-10-07T11:34:16.283Z,7.77
2018-10-07T11:37:01.966Z,5.20
2018-10-07T11:42:41.939Z,7.70
2018-10-07T11:45:13.105Z,4.63
2018-10-07T11:48:02.075Z,9.37
2018-10-07T11:52:48.591Z,3.73
2018-10-07T11:55:17.800Z,4.87
2018-10-07T11:57:46.991Z,6.67
2018-10-07T12:00:16.236Z,7.97
2018-10-07T12:02:45.463Z,7.63
2018-10-07T12:05:14.632Z,4.73
2018-10-07T12:07:43.887Z,6.93
2018-10-07T12:10:13.099Z,5.00
2018-10-07T12:12:42.302Z,6.57
2018-10-07T12:15:11.828Z,5.73
2018-10-07T12:17:41.023Z,5.93
2018-10-07T12:20:10.256Z,4.40
2018-10-07T12:22:39.473Z,4.93
2018-10-07T12:25:08.919Z,4.80
2018-10-07T12:30:19.013Z,9.00
2018-10-07T12:32:48.416Z,5.47
2018-10-07T12:35:17.899Z,10.00
2018-10-07T12:40:39.915Z,7.83
2018-10-07T12:43:09.566Z,7.47
2018-10-07T12:45:38.781Z,4.37
2018-10-07T12:48:08.047Z,5.47
2018-10-07T12:50:37.422Z,7.25
2018-10-07T12:53:06.802Z,3.57
2018-10-07T12:55:36.512Z,7.77
2018-10-07T12:58:05.823Z,4.60
2018-10-07T13:00:35.039Z,6.85
2018-10-07T13:03:04.356Z,6.07
2018-10-07T13:05:34.511Z,4.50
2018-10-07T13:08:03.778Z,4.10
2018-10-07T13:10:33.071Z,5.37
2018-10-07T13:13:02.470Z,4.80
2018-10-07T13:15:31.736Z,5.80
2018-10-07T13:18:01.025Z,7.53
2018-10-07T13:20:30.273Z,4.73
2018-10-07T13:22:59.541Z,6.83
2018-10-07T13:25:29.080Z,3.60
2018-10-07T13:27:58.256Z,7.97
2018-10-07T13:30:27.560Z,4.87
2018-10-07T13:32:56.931Z,3.20
2018-10-07T13:35:26.260Z,6.40
2018-10-07T13:37:55.592Z,4.80
2018-10-07T13:40:24.811Z,5.40
2018-10-07T13:42:54.198Z,6.13
2018-10-07T13:45:23.557Z,5.97
2018-10-07T13:47:52.905Z,6.30
2018-10-07T13:50:22.174Z,4.30
2018-10-07T13:52:51.631Z,5.22
2018-10-07T13:55:20.899Z,6.20
2018-10-07T13:57:50.429Z,5.63
2018-10-07T14:00:19.817Z,2.93
2018-10-07T14:02:49.164Z,6.07
2018-10-07T14:05:18.553Z,11.57
2018-10-07T14:07:47.896Z,4.40
2018-10-07T14:10:17.299Z,5.50
2018-10-07T14:12:54.464Z,4.50
2018-10-07T14:15:35.102Z,8.90
2018-10-07T14:18:04.878Z,3.93
2018-10-07T14:20:34.228Z,6.87
2018-10-07T14:23:03.658Z,6.60
2018-10-07T14:25:33.386Z,5.43
2018-10-07T14:28:05.557Z,5.47
2018-10-07T14:30:35.602Z,6.37
2018-10-07T14:33:04.983Z,4.60
2018-10-07T14:35:37.150Z,7.42
2018-10-07T14:38:06.596Z,5.60
2018-10-07T14:40:35.887Z,5.77
2018-10-07T14:43:05.507Z,6.07
2018-10-07T14:45:34.800Z,2.67
2018-10-07T14:48:04.117Z,4.43
2018-10-07T14:50:33.513Z,5.05
2018-10-07T14:53:05.877Z,4.50
2018-10-07T14:58:27.652Z,6.50
2018-10-07T15:00:57.163Z,4.25
2018-10-07T15:03:28.590Z,4.17
2018-10-07T15:05:58.844Z,2.80
2018-10-07T15:08:44.284Z,6.58
2018-10-07T15:11:14.867Z,2.60
2018-10-07T15:13:45.173Z,3.33
2018-10-07T15:16:14.524Z,5.97
2018-10-07T15:18:43.857Z,3.77
2018-10-07T15:21:13.104Z,6.60
2018-10-07T15:23:42.409Z,6.77
2018-10-07T15:26:11.619Z,4.87
2018-10-07T15:28:40.844Z,5.13
2018-10-07T15:31:10.046Z,4.20
2018-10-07T15:33:39.308Z,6.53
2018-10-07T15:36:08.571Z,4.83
2018-10-07T15:41:18.836Z,6.03
2018-10-07T15:43:49.626Z,10.00
2018-10-07T15:46:18.926Z,6.40
2018-10-07T15:48:48.154Z,5.37
2018-10-07T15:51:17.458Z,4.90
2018-10-07T15:53:46.696Z,3.40
2018-10-07T15:56:15.989Z,7.77
2018-10-07T15:58:45.396Z,5.37
2018-10-07T16:01:14.738Z,8.13
2018-10-07T16:03:44.122Z,6.13
2018-10-07T16:06:13.489Z,11.03
2018-10-07T16:08:42.869Z,2.60
2018-10-07T16:11:12.960Z,4.10
2018-10-07T16:13:43.150Z,7.73
2018-10-07T16:16:12.438Z,5.40
2018-10-07T16:18:41.693Z,7.70
2018-10-07T16:21:10.998Z,4.63
2018-10-07T16:23:40.552Z,4.55
2018-10-07T16:26:09.975Z,4.72
2018-10-07T16:28:39.313Z,5.97
2018-10-07T16:31:08.720Z,4.60
2018-10-07T16:36:34.859Z,5.65
2018-10-07T16:39:04.934Z,4.73
2018-10-07T16:41:34.377Z,3.87
2018-10-07T16:44:03.881Z,4.28
2018-10-07T16:46:33.388Z,4.83
2018-10-07T16:49:02.772Z,8.33
2018-10-07T16:51:31.956Z,8.43
2018-10-07T16:54:01.233Z,5.27
2018-10-07T16:56:30.757Z,4.83
2018-10-07T16:59:00.198Z,5.57
2018-10-07T17:01:30.069Z,7.50
2018-10-07T17:03:59.305Z,5.67
2018-10-07T17:06:28.831Z,9.83
2018-10-07T17:08:58.035Z,10.60
2018-10-07T17:11:27.501Z,7.87
2018-10-07T17:13:56.755Z,3.60
2018-10-07T17:16:26.030Z,4.10
2018-10-07T17:18:55.240Z,4.80
2018-10-07T17:21:24.397Z,6.30
2018-10-07T17:23:53.663Z,5.33
2018-10-07T17:26:22.917Z,7.93
2018-10-07T17:28:52.083Z,4.83
2018-10-07T17:31:21.384Z,5.53
2018-10-07T17:33:50.833Z,3.75
2018-10-07T17:36:20.045Z,6.17
2018-10-07T17:38:49.210Z,8.53
2018-10-07T17:41:18.415Z,6.53
2018-10-07T17:43:47.669Z,7.10
2018-10-07T17:46:16.910Z,6.07
2018-10-07T17:48:46.964Z,11.78
2018-10-07T17:51:16.272Z,8.03
2018-10-07T17:53:45.665Z,10.83
2018-10-07T17:56:15.240Z,8.00
2018-10-07T17:58:44.522Z,11.43
2018-10-07T18:01:13.818Z,3.83
2018-10-07T18:03:43.172Z,3.97
2018-10-07T18:06:12.420Z,4.92
2018-10-07T18:08:41.669Z,5.42
2018-10-07T18:11:11.901Z,5.33
2018-10-07T18:13:41.149Z,4.53
2018-10-07T18:16:10.434Z,5.17
2018-10-07T18:18:39.657Z,5.93
2018-10-07T18:21:09.001Z,8.20
2018-10-07T18:23:38.160Z,7.00
2018-10-07T18:26:08.187Z,10.20
2018-10-07T18:28:37.517Z,7.50
2018-10-07T18:31:07.177Z,8.90
2018-10-07T18:33:36.550Z,7.92
2018-10-07T18:36:06.300Z,6.33
2018-10-07T18:38:35.608Z,4.90
2018-10-07T18:41:05.342Z,10.47
2018-10-07T18:43:34.908Z,4.30
2018-10-07T18:46:04.365Z,3.47
2018-10-07T18:48:33.814Z,3.50
2018-10-07T18:51:03.320Z,7.27
2018-10-07T18:53:32.779Z,6.03
2018-10-07T18:56:02.267Z,5.87
2018-10-07T18:58:31.975Z,4.87
2018-10-07T19:01:01.634Z,5.17
2018-10-07T19:03:31.323Z,6.10
2018-10-07T19:06:00.799Z,6.62
2018-10-07T19:08:30.496Z,4.25
2018-10-07T19:11:00.035Z,6.90
2018-10-07T19:13:29.719Z,4.23
2018-10-07T19:16:01.024Z,6.87
2018-10-07T19:18:30.457Z,5.90
2018-10-07T19:20:59.958Z,7.93
2018-10-07T19:23:29.585Z,4.70
2018-10-07T19:25:59.112Z,7.17
2018-10-07T19:28:28.831Z,5.70
2018-10-07T19:30:58.370Z,7.97
2018-10-07T19:33:27.893Z,8.37
2018-10-07T19:35:58.332Z,7.43
2018-10-07T19:38:31.308Z,5.77
2018-10-07T19:41:00.823Z,6.87
2018-10-07T19:43:30.341Z,7.23
2018-10-07T19:46:03.672Z,6.20
2018-10-07T19:48:33.163Z,4.47
2018-10-07T19:51:02.657Z,7.33
2018-10-07T19:53:32.088Z,4.17
2018-10-07T19:56:01.575Z,4.83
2018-10-07T19:58:34.561Z,8.10
2018-10-07T20:01:04.085Z,4.70
2018-10-07T20:03:33.545Z,4.40
2018-10-07T20:06:02.977Z,4.20
2018-10-07T20:08:32.845Z,6.80
2018-10-07T20:11:02.424Z,6.90
2018-10-07T20:13:32.271Z,5.53
2018-10-07T20:16:01.803Z,6.40
2018-10-07T20:18:31.900Z,8.20
2018-10-07T20:21:01.756Z,6.97
2018-10-07T20:23:31.249Z,4.83
2018-10-07T20:26:00.655Z,5.93
2018-10-07T20:28:30.256Z,5.17
2018-10-07T20:30:59.723Z,2.67
2018-10-07T20:33:29.218Z,7.55
2018-10-07T20:35:58.786Z,3.40
2018-10-07T20:38:28.309Z,4.33
2018-10-07T20:40:57.922Z,6.47
2018-10-07T20:43:27.404Z,6.10
2018-10-07T20:45:56.775Z,7.10
2018-10-07T20:48:26.680Z,7.53
2018-10-07T20:50:56.152Z,5.03
2018-10-07T20:53:25.642Z,5.63
2018-10-07T20:55:55.110Z,6.75
2018-10-07T20:58:24.569Z,4.10
2018-10-07T21:00:54.125Z,6.87
2018-10-07T21:03:23.634Z,5.47
2018-10-07T21:05:54.078Z,5.67
2018-10-07T21:08:23.573Z,7.50
2018-10-07T21:10:53.051Z,6.53
2018-10-07T21:13:22.530Z,6.57
2018-10-07T21:15:52.024Z,6.10
2018-10-07T21:18:21.474Z,6.73
2018-10-07T21:20:50.993Z,7.28
2018-10-07T21:23:20.534Z,6.87
2018-10-07T21:25:50.041Z,7.97
2018-10-07T21:28:19.494Z,5.40
2018-10-07T21:30:48.986Z,6.90
2018-10-07T21:33:18.500Z,6.63
2018-10-07T21:35:48.021Z,7.00
2018-10-07T21:38:17.512Z,7.22
2018-10-07T21:40:46.976Z,7.10
2018-10-07T21:43:16.443Z,6.63
2018-10-07T21:45:46.905Z,11.17
2018-10-07T21:48:16.377Z,5.97
2018-10-07T21:50:45.852Z,6.37
2018-10-07T21:53:16.292Z,6.47
2018-10-07T21:55:45.779Z,7.40
2018-10-07T21:58:15.268Z,10.37
2018-10-07T22:00:44.943Z,6.67
2018-10-07T22:03:14.347Z,9.20
2018-10-07T22:05:43.830Z,6.87
2018-10-07T22:08:13.197Z,6.57
2018-10-07T22:10:42.662Z,8.67
2018-10-07T22:13:12.855Z,7.15
2018-10-07T22:15:42.290Z,8.93
2018-10-07T22:18:11.816Z,7.47
2018-10-07T22:20:41.308Z,6.27
2018-10-07T22:23:10.697Z,12.73
2018-10-07T22:25:40.160Z,6.42
2018-10-07T22:28:09.608Z,7.33
2018-10-07T22:30:39.045Z,6.23
2018-10-07T22:33:08.763Z,7.43
2018-10-07T22:35:38.549Z,7.47
2018-10-07T22:38:08.079Z,8.13
2018-10-07T22:40:37.554Z,9.95
2018-10-07T22:43:07.029Z,7.73
2018-10-07T22:45:36.802Z,9.03
2018-10-07T22:48:06.315Z,6.93
2018-10-07T22:50:35.960Z,5.67
2018-10-07T22:53:05.452Z,8.38
2018-10-07T22:55:34.813Z,8.70
2018-10-07T22:58:06.089Z,8.38
2018-10-07T23:00:35.577Z,6.33
2018-10-07T23:03:05.053Z,5.47
2018-10-07T23:05:34.676Z,6.80
2018-10-07T23:08:03.988Z,9.20
2018-10-07T23:10:33.314Z,5.43
2018-10-07T23:13:02.766Z,6.90
2018-10-07T23:15:32.169Z,7.83
2018-10-07T23:18:01.525Z,6.80
2018-10-07T23:20:30.942Z,6.10
2018-10-07T23:23:00.337Z,6.00
2018-10-07T23:25:29.993Z,8.80
2018-10-07T23:27:59.734Z,11.45
2018-10-07T23:30:29.069Z,7.70
2018-10-07T23:32:58.928Z,7.50
2018-10-07T23:35:28.802Z,5.87
2018-10-07T23:37:58.186Z,8.50
2018-10-07T23:40:27.683Z,12.20
2018-10-07T23:42:57.685Z,10.13
2018-10-07T23:45:27.135Z,9.80
2018-10-07T23:47:58.685Z,9.87
2018-10-07T23:50:30.198Z,10.17
2018-10-07T23:52:59.825Z,8.43
2018-10-07T23:55:29.494Z,10.17
2018-10-07T23:57:58.963Z,9.90
